sensor_id;sensor_type;location;lat;lon;timestamp;temperature;humidity
52963;DHT22;38827;53.024;6.596;2024-02-04T00:01:08;7.50;89.80
52963;DHT22;38827;53.024;6.596;2024-02-04T00:33:30;7.20;89.90
52963;DHT22;38827;53.024;6.596;2024-02-04T00:40:30;7.20;89.70
52963;DHT22;38827;53.024;6.596;2024-02-04T00:53:45;7.00;89.80
52963;DHT22;38827;53.024;6.596;2024-02-04T00:56:49;7.00;89.50
52963;DHT22;38827;53.024;6.596;2024-02-04T00:59:15;7.00;89.40
52963;DHT22;38827;53.024;6.596;2024-02-04T01:01:40;7.00;89.50
52963;DHT22;38827;53.024;6.596;2024-02-04T01:04:07;6.90;89.50
52963;DHT22;38827;53.024;6.596;2024-02-04T01:06:33;6.90;89.10
52963;DHT22;38827;53.024;6.596;2024-02-04T01:08:59;6.90;89.40
52963;DHT22;38827;53.024;6.596;2024-02-04T01:11:24;6.90;89.40
52963;DHT22;38827;53.024;6.596;2024-02-04T01:13:50;6.90;89.20
52963;DHT22;38827;53.024;6.596;2024-02-04T01:16:16;6.90;89.10
52963;DHT22;38827;53.024;6.596;2024-02-04T01:18:41;6.80;89.10
52963;DHT22;38827;53.024;6.596;2024-02-04T01:21:07;6.80;89.20
52963;DHT22;38827;53.024;6.596;2024-02-04T01:23:34;6.80;89.30
52963;DHT22;38827;53.024;6.596;2024-02-04T01:26:00;6.80;89.20
52963;DHT22;38827;53.024;6.596;2024-02-04T01:28:25;6.70;89.10
52963;DHT22;38827;53.024;6.596;2024-02-04T01:30:54;6.70;89.10
52963;DHT22;38827;53.024;6.596;2024-02-04T01:33:20;6.70;89.10
52963;DHT22;38827;53.024;6.596;2024-02-04T01:35:45;6.70;89.10
52963;DHT22;38827;53.024;6.596;2024-02-04T01:38:11;6.60;89.00
52963;DHT22;38827;53.024;6.596;2024-02-04T01:40:37;6.60;89.10
52963;DHT22;38827;53.024;6.596;2024-02-04T01:43:02;6.60;89.10
52963;DHT22;38827;53.024;6.596;2024-02-04T01:45:28;6.60;89.00
52963;DHT22;38827;53.024;6.596;2024-02-04T01:47:54;6.60;88.90
52963;DHT22;38827;53.024;6.596;2024-02-04T01:50:20;6.60;88.80
52963;DHT22;38827;53.024;6.596;2024-02-04T01:52:46;6.50;88.80
52963;DHT22;38827;53.024;6.596;2024-02-04T01:55:13;6.50;88.80
52963;DHT22;38827;53.024;6.596;2024-02-04T01:57:40;6.50;88.80
52963;DHT22;38827;53.024;6.596;2024-02-04T02:00:07;6.50;88.70
52963;DHT22;38827;53.024;6.596;2024-02-04T02:02:41;6.50;88.60
52963;DHT22;38827;53.024;6.596;2024-02-04T02:05:07;6.50;88.70
52963;DHT22;38827;53.024;6.596;2024-02-04T02:07:34;6.40;88.40
52963;DHT22;38827;53.024;6.596;2024-02-04T02:10:00;6.40;88.40
52963;DHT22;38827;53.024;6.596;2024-02-04T02:12:28;6.40;88.30
52963;DHT22;38827;53.024;6.596;2024-02-04T02:15:03;6.40;88.20
52963;DHT22;38827;53.024;6.596;2024-02-04T02:17:51;6.40;88.10
52963;DHT22;38827;53.024;6.596;2024-02-04T02:20:25;6.40;88.20
52963;DHT22;38827;53.024;6.596;2024-02-04T02:23:06;6.40;88.20
52963;DHT22;38827;53.024;6.596;2024-02-04T02:25:33;6.40;88.10
52963;DHT22;38827;53.024;6.596;2024-02-04T02:28:01;6.30;88.20
52963;DHT22;38827;53.024;6.596;2024-02-04T02:30:27;6.30;88.10
52963;DHT22;38827;53.024;6.596;2024-02-04T02:32:53;6.30;88.10
52963;DHT22;38827;53.024;6.596;2024-02-04T02:35:19;6.30;88.20
52963;DHT22;38827;53.024;6.596;2024-02-04T02:38:17;6.30;88.20
52963;DHT22;38827;53.024;6.596;2024-02-04T02:40:58;6.30;88.20
52963;DHT22;38827;53.024;6.596;2024-02-04T02:43:24;6.30;88.50
52963;DHT22;38827;53.024;6.596;2024-02-04T02:45:51;6.30;88.50
52963;DHT22;38827;53.024;6.596;2024-02-04T02:48:18;6.30;88.50
52963;DHT22;38827;53.024;6.596;2024-02-04T02:50:44;6.30;88.50
52963;DHT22;38827;53.024;6.596;2024-02-04T02:53:09;6.30;88.50
52963;DHT22;38827;53.024;6.596;2024-02-04T02:55:35;6.30;88.80
52963;DHT22;38827;53.024;6.596;2024-02-04T02:58:01;6.30;88.80
52963;DHT22;38827;53.024;6.596;2024-02-04T03:00:30;6.30;88.80
52963;DHT22;38827;53.024;6.596;2024-02-04T03:02:56;6.30;89.00
52963;DHT22;38827;53.024;6.596;2024-02-04T03:05:22;6.30;89.10
52963;DHT22;38827;53.024;6.596;2024-02-04T03:07:48;6.30;89.10
52963;DHT22;38827;53.024;6.596;2024-02-04T03:10:13;6.30;89.20
52963;DHT22;38827;53.024;6.596;2024-02-04T03:12:39;6.30;89.40
52963;DHT22;38827;53.024;6.596;2024-02-04T03:15:05;6.30;89.50
52963;DHT22;38827;53.024;6.596;2024-02-04T03:17:43;6.30;89.50
52963;DHT22;38827;53.024;6.596;2024-02-04T03:20:10;6.30;89.50
52963;DHT22;38827;53.024;6.596;2024-02-04T03:22:35;6.30;89.80
52963;DHT22;38827;53.024;6.596;2024-02-04T03:25:04;6.30;89.80
52963;DHT22;38827;53.024;6.596;2024-02-04T03:27:31;6.30;89.90
52963;DHT22;38827;53.024;6.596;2024-02-04T03:29:59;6.30;90.10
52963;DHT22;38827;53.024;6.596;2024-02-04T03:32:24;6.30;90.20
52963;DHT22;38827;53.024;6.596;2024-02-04T03:34:50;6.30;90.30
52963;DHT22;38827;53.024;6.596;2024-02-04T03:37:16;6.30;90.40
52963;DHT22;38827;53.024;6.596;2024-02-04T03:39:41;6.30;90.40
52963;DHT22;38827;53.024;6.596;2024-02-04T03:42:07;6.30;90.40
52963;DHT22;38827;53.024;6.596;2024-02-04T03:44:32;6.30;90.30
52963;DHT22;38827;53.024;6.596;2024-02-04T03:46:58;6.30;90.30
52963;DHT22;38827;53.024;6.596;2024-02-04T03:49:24;6.30;90.30
52963;DHT22;38827;53.024;6.596;2024-02-04T03:51:49;6.40;90.20
52963;DHT22;38827;53.024;6.596;2024-02-04T03:54:15;6.30;90.20
52963;DHT22;38827;53.024;6.596;2024-02-04T03:56:41;6.30;90.30
52963;DHT22;38827;53.024;6.596;2024-02-04T03:59:08;6.30;90.10
52963;DHT22;38827;53.024;6.596;2024-02-04T04:01:34;6.40;90.00
52963;DHT22;38827;53.024;6.596;2024-02-04T04:04:00;6.40;89.90
52963;DHT22;38827;53.024;6.596;2024-02-04T04:06:26;6.40;89.90
52963;DHT22;38827;53.024;6.596;2024-02-04T04:08:51;6.40;89.90
52963;DHT22;38827;53.024;6.596;2024-02-04T04:11:17;6.40;89.80
52963;DHT22;38827;53.024;6.596;2024-02-04T04:13:43;6.40;89.60
52963;DHT22;38827;53.024;6.596;2024-02-04T04:16:08;6.40;89.60
52963;DHT22;38827;53.024;6.596;2024-02-04T04:18:34;6.40;89.50
52963;DHT22;38827;53.024;6.596;2024-02-04T04:21:00;6.40;89.50
52963;DHT22;38827;53.024;6.596;2024-02-04T04:23:29;6.40;89.40
52963;DHT22;38827;53.024;6.596;2024-02-04T04:25:55;6.40;89.50
52963;DHT22;38827;53.024;6.596;2024-02-04T04:28:20;6.50;89.40
52963;DHT22;38827;53.024;6.596;2024-02-04T04:30:55;6.50;89.40
52963;DHT22;38827;53.024;6.596;2024-02-04T04:36:37;6.50;89.30
52963;DHT22;38827;53.024;6.596;2024-02-04T04:39:12;6.50;89.30
52963;DHT22;38827;53.024;6.596;2024-02-04T04:41:52;6.50;89.30
52963;DHT22;38827;53.024;6.596;2024-02-04T04:44:18;6.50;89.00
52963;DHT22;38827;53.024;6.596;2024-02-04T04:47:06;6.50;89.10
52963;DHT22;38827;53.024;6.596;2024-02-04T05:06:42;6.50;88.70
52963;DHT22;38827;53.024;6.596;2024-02-04T05:34:38;6.70;88.30
52963;DHT22;38827;53.024;6.596;2024-02-04T05:37:04;6.70;88.30
52963;DHT22;38827;53.024;6.596;2024-02-04T05:39:29;6.70;88.30
52963;DHT22;38827;53.024;6.596;2024-02-04T05:41:55;6.70;88.20
52963;DHT22;38827;53.024;6.596;2024-02-04T05:44:21;6.70;88.20
52963;DHT22;38827;53.024;6.596;2024-02-04T05:46:46;6.70;88.00
52963;DHT22;38827;53.024;6.596;2024-02-04T05:49:12;6.70;88.00
52963;DHT22;38827;53.024;6.596;2024-02-04T05:51:39;6.70;87.90
52963;DHT22;38827;53.024;6.596;2024-02-04T05:54:06;6.70;87.80
52963;DHT22;38827;53.024;6.596;2024-02-04T05:56:32;6.70;87.70
52963;DHT22;38827;53.024;6.596;2024-02-04T05:59:00;6.70;87.50
52963;DHT22;38827;53.024;6.596;2024-02-04T06:01:26;6.80;87.50
52963;DHT22;38827;53.024;6.596;2024-02-04T06:04:01;6.70;87.40
52963;DHT22;38827;53.024;6.596;2024-02-04T06:06:42;6.70;87.20
52963;DHT22;38827;53.024;6.596;2024-02-04T06:09:23;6.80;87.10
52963;DHT22;38827;53.024;6.596;2024-02-04T06:12:04;6.80;86.90
52963;DHT22;38827;53.024;6.596;2024-02-04T06:14:33;6.80;86.80
52963;DHT22;38827;53.024;6.596;2024-02-04T06:16:59;6.70;86.80
52963;DHT22;38827;53.024;6.596;2024-02-04T06:19:25;6.80;86.70
52963;DHT22;38827;53.024;6.596;2024-02-04T06:21:51;6.80;86.50
52963;DHT22;38827;53.024;6.596;2024-02-04T06:24:16;6.80;86.30
52963;DHT22;38827;53.024;6.596;2024-02-04T06:26:42;6.80;86.20
52963;DHT22;38827;53.024;6.596;2024-02-04T06:29:08;6.80;86.00
52963;DHT22;38827;53.024;6.596;2024-02-04T06:31:33;6.80;85.80
52963;DHT22;38827;53.024;6.596;2024-02-04T06:33:59;6.80;85.70
52963;DHT22;38827;53.024;6.596;2024-02-04T06:36:29;6.80;85.70
52963;DHT22;38827;53.024;6.596;2024-02-04T06:38:58;6.90;85.60
52963;DHT22;38827;53.024;6.596;2024-02-04T06:41:23;6.90;85.50
52963;DHT22;38827;53.024;6.596;2024-02-04T06:43:55;6.90;85.30
52963;DHT22;38827;53.024;6.596;2024-02-04T06:46:39;6.90;85.00
52963;DHT22;38827;53.024;6.596;2024-02-04T06:49:17;6.90;84.60
52963;DHT22;38827;53.024;6.596;2024-02-04T06:51:44;7.00;84.50
52963;DHT22;38827;53.024;6.596;2024-02-04T06:54:10;7.00;84.30
52963;DHT22;38827;53.024;6.596;2024-02-04T06:56:45;7.00;84.00
52963;DHT22;38827;53.024;6.596;2024-02-04T06:59:23;7.10;83.90
52963;DHT22;38827;53.024;6.596;2024-02-04T07:02:14;7.10;83.50
52963;DHT22;38827;53.024;6.596;2024-02-04T07:04:46;7.10;83.00
52963;DHT22;38827;53.024;6.596;2024-02-04T07:07:30;7.20;83.00
52963;DHT22;38827;53.024;6.596;2024-02-04T07:10:05;7.20;82.20
52963;DHT22;38827;53.024;6.596;2024-02-04T07:12:31;7.20;82.50
52963;DHT22;38827;53.024;6.596;2024-02-04T07:15:12;7.20;82.40
52963;DHT22;38827;53.024;6.596;2024-02-04T07:17:53;7.30;82.00
52963;DHT22;38827;53.024;6.596;2024-02-04T07:20:25;7.30;81.80
52963;DHT22;38827;53.024;6.596;2024-02-04T07:26:12;7.30;81.50
52963;DHT22;38827;53.024;6.596;2024-02-04T07:29:00;7.40;81.20
52963;DHT22;38827;53.024;6.596;2024-02-04T07:31:56;7.40;81.30
52963;DHT22;38827;53.024;6.596;2024-02-04T07:34:22;7.40;81.20
52963;DHT22;38827;53.024;6.596;2024-02-04T07:37:06;7.40;81.30
52963;DHT22;38827;53.024;6.596;2024-02-04T07:39:32;7.40;81.10
52963;DHT22;38827;53.024;6.596;2024-02-04T07:42:13;7.40;81.40
52963;DHT22;38827;53.024;6.596;2024-02-04T07:44:38;7.40;81.30
52963;DHT22;38827;53.024;6.596;2024-02-04T07:47:04;7.40;81.40
52963;DHT22;38827;53.024;6.596;2024-02-04T07:49:30;7.40;81.40
52963;DHT22;38827;53.024;6.596;2024-02-04T07:51:56;7.50;81.20
52963;DHT22;38827;53.024;6.596;2024-02-04T07:54:21;7.50;81.00
52963;DHT22;38827;53.024;6.596;2024-02-04T07:59:37;7.50;80.90
52963;DHT22;38827;53.024;6.596;2024-02-04T08:02:09;7.50;80.70
52963;DHT22;38827;53.024;6.596;2024-02-04T08:05:02;7.50;80.90
52963;DHT22;38827;53.024;6.596;2024-02-04T08:07:40;7.60;80.60
52963;DHT22;38827;53.024;6.596;2024-02-04T08:10:40;7.60;80.80
52963;DHT22;38827;53.024;6.596;2024-02-04T08:13:18;7.60;80.70
52963;DHT22;38827;53.024;6.596;2024-02-04T08:15:44;7.60;80.80
52963;DHT22;38827;53.024;6.596;2024-02-04T08:18:21;7.60;80.90
52963;DHT22;38827;53.024;6.596;2024-02-04T08:21:09;7.70;80.70
52963;DHT22;38827;53.024;6.596;2024-02-04T08:24:11;7.70;80.40
52963;DHT22;38827;53.024;6.596;2024-02-04T08:26:43;7.70;80.80
52963;DHT22;38827;53.024;6.596;2024-02-04T08:29:15;7.80;80.80
52963;DHT22;38827;53.024;6.596;2024-02-04T08:35:21;7.80;80.60
52963;DHT22;38827;53.024;6.596;2024-02-04T08:38:07;7.80;80.90
52963;DHT22;38827;53.024;6.596;2024-02-04T08:40:33;7.90;80.80
52963;DHT22;38827;53.024;6.596;2024-02-04T08:42:58;7.90;81.10
52963;DHT22;38827;53.024;6.596;2024-02-04T08:48:32;8.00;81.00
52963;DHT22;38827;53.024;6.596;2024-02-04T08:51:01;8.00;81.20
52963;DHT22;38827;53.024;6.596;2024-02-04T08:56:13;8.10;80.80
52963;DHT22;38827;53.024;6.596;2024-02-04T08:58:39;8.10;81.10
52963;DHT22;38827;53.024;6.596;2024-02-04T09:01:05;8.20;81.00
52963;DHT22;38827;53.024;6.596;2024-02-04T09:03:31;8.30;80.80
52963;DHT22;38827;53.024;6.596;2024-02-04T09:06:00;8.40;80.60
52963;DHT22;38827;53.024;6.596;2024-02-04T09:08:26;8.40;80.50
52963;DHT22;38827;53.024;6.596;2024-02-04T09:11:04;8.40;80.20
52963;DHT22;38827;53.024;6.596;2024-02-04T09:13:29;8.50;80.00
52963;DHT22;38827;53.024;6.596;2024-02-04T09:15:55;8.50;80.10
52963;DHT22;38827;53.024;6.596;2024-02-04T09:20:51;8.60;79.60
52963;DHT22;38827;53.024;6.596;2024-02-04T09:23:20;8.60;79.60
52963;DHT22;38827;53.024;6.596;2024-02-04T09:25:52;8.80;79.60
52963;DHT22;38827;53.024;6.596;2024-02-04T09:28:17;8.90;79.20
52963;DHT22;38827;53.024;6.596;2024-02-04T09:33:22;9.20;77.90
52963;DHT22;38827;53.024;6.596;2024-02-04T09:35:48;9.30;77.40
52963;DHT22;38827;53.024;6.596;2024-02-04T09:38:14;9.40;76.80
52963;DHT22;38827;53.024;6.596;2024-02-04T09:40:41;9.50;76.50
52963;DHT22;38827;53.024;6.596;2024-02-04T09:45:51;9.70;75.70
52963;DHT22;38827;53.024;6.596;2024-02-04T10:25:12;11.00;69.20
52963;DHT22;38827;53.024;6.596;2024-02-04T10:35:33;10.80;68.90
52963;DHT22;38827;53.024;6.596;2024-02-04T10:38:11;10.70;70.40
52963;DHT22;38827;53.024;6.596;2024-02-04T10:46:23;10.70;69.90
52963;DHT22;38827;53.024;6.596;2024-02-04T10:49:00;10.70;69.90
52963;DHT22;38827;53.024;6.596;2024-02-04T10:51:49;10.60;69.70
52963;DHT22;38827;53.024;6.596;2024-02-04T10:54:35;10.50;70.50
52963;DHT22;38827;53.024;6.596;2024-02-04T10:57:05;10.50;70.40
52963;DHT22;38827;53.024;6.596;2024-02-04T10:59:34;10.70;70.20
52963;DHT22;38827;53.024;6.596;2024-02-04T11:02:11;10.70;70.00
52963;DHT22;38827;53.024;6.596;2024-02-04T11:05:02;10.70;69.20
52963;DHT22;38827;53.024;6.596;2024-02-04T11:07:33;10.50;69.60
52963;DHT22;38827;53.024;6.596;2024-02-04T11:10:00;10.30;70.70
52963;DHT22;38827;53.024;6.596;2024-02-04T11:12:37;10.10;71.20
52963;DHT22;38827;53.024;6.596;2024-02-04T11:15:15;10.10;71.30
52963;DHT22;38827;53.024;6.596;2024-02-04T11:29:33;9.60;72.70
52963;DHT22;38827;53.024;6.596;2024-02-04T11:32:24;9.60;73.10
52963;DHT22;38827;53.024;6.596;2024-02-04T11:34:54;9.60;73.50
52963;DHT22;38827;53.024;6.596;2024-02-04T11:37:46;9.60;73.70
52963;DHT22;38827;53.024;6.596;2024-02-04T11:40:18;9.60;73.60
52963;DHT22;38827;53.024;6.596;2024-02-04T11:42:45;9.60;73.80
52963;DHT22;38827;53.024;6.596;2024-02-04T11:45:14;9.60;74.00
52963;DHT22;38827;53.024;6.596;2024-02-04T11:47:40;9.70;74.10
52963;DHT22;38827;53.024;6.596;2024-02-04T11:50:23;9.70;74.30
52963;DHT22;38827;53.024;6.596;2024-02-04T11:53:14;9.70;74.30
52963;DHT22;38827;53.024;6.596;2024-02-04T11:55:43;9.70;74.50
52963;DHT22;38827;53.024;6.596;2024-02-04T11:58:25;9.80;74.60
52963;DHT22;38827;53.024;6.596;2024-02-04T12:01:37;9.90;74.10
52963;DHT22;38827;53.024;6.596;2024-02-04T12:04:33;9.90;74.30
52963;DHT22;38827;53.024;6.596;2024-02-04T12:07:13;10.00;74.00
52963;DHT22;38827;53.024;6.596;2024-02-04T12:09:42;10.00;74.30
52963;DHT22;38827;53.024;6.596;2024-02-04T12:12:14;10.00;74.20
52963;DHT22;38827;53.024;6.596;2024-02-04T12:14:41;10.10;74.40
52963;DHT22;38827;53.024;6.596;2024-02-04T12:17:22;10.10;74.30
52963;DHT22;38827;53.024;6.596;2024-02-04T12:22:44;10.00;74.30
52963;DHT22;38827;53.024;6.596;2024-02-04T12:28:49;10.00;73.90
52963;DHT22;38827;53.024;6.596;2024-02-04T12:33:56;10.00;74.60
52963;DHT22;38827;53.024;6.596;2024-02-04T12:43:57;9.90;73.90
52963;DHT22;38827;53.024;6.596;2024-02-04T12:47:01;9.80;74.40
52963;DHT22;38827;53.024;6.596;2024-02-04T12:49:30;9.80;73.90
52963;DHT22;38827;53.024;6.596;2024-02-04T12:58:54;9.70;73.00
52963;DHT22;38827;53.024;6.596;2024-02-04T13:01:22;9.70;73.20
52963;DHT22;38827;53.024;6.596;2024-02-04T13:04:00;9.70;73.80
52963;DHT22;38827;53.024;6.596;2024-02-04T13:06:50;9.80;73.40
52963;DHT22;38827;53.024;6.596;2024-02-04T13:09:29;9.80;73.20
52963;DHT22;38827;53.024;6.596;2024-02-04T13:12:16;9.80;73.60
52963;DHT22;38827;53.024;6.596;2024-02-04T13:14:57;9.80;73.10
52963;DHT22;38827;53.024;6.596;2024-02-04T13:17:26;9.80;73.00
52963;DHT22;38827;53.024;6.596;2024-02-04T13:19:54;9.70;73.60
52963;DHT22;38827;53.024;6.596;2024-02-04T13:22:20;9.70;73.80
52963;DHT22;38827;53.024;6.596;2024-02-04T13:24:47;9.70;73.80
52963;DHT22;38827;53.024;6.596;2024-02-04T13:27:12;9.60;73.90
52963;DHT22;38827;53.024;6.596;2024-02-04T13:29:38;9.60;74.10
52963;DHT22;38827;53.024;6.596;2024-02-04T13:32:04;9.50;74.30
52963;DHT22;38827;53.024;6.596;2024-02-04T13:34:33;9.50;74.50
52963;DHT22;38827;53.024;6.596;2024-02-04T13:36:59;9.50;74.80
52963;DHT22;38827;53.024;6.596;2024-02-04T13:39:25;9.50;75.00
52963;DHT22;38827;53.024;6.596;2024-02-04T13:41:50;9.50;75.20
52963;DHT22;38827;53.024;6.596;2024-02-04T13:44:17;9.50;75.30
52963;DHT22;38827;53.024;6.596;2024-02-04T13:46:43;9.40;75.60
52963;DHT22;38827;53.024;6.596;2024-02-04T13:49:09;9.40;76.10
52963;DHT22;38827;53.024;6.596;2024-02-04T13:51:35;9.40;76.40
52963;DHT22;38827;53.024;6.596;2024-02-04T13:54:01;9.30;76.60
52963;DHT22;38827;53.024;6.596;2024-02-04T13:56:27;9.30;76.90
52963;DHT22;38827;53.024;6.596;2024-02-04T13:58:55;9.30;77.10
52963;DHT22;38827;53.024;6.596;2024-02-04T14:01:20;9.30;77.40
52963;DHT22;38827;53.024;6.596;2024-02-04T14:03:48;9.30;77.70
52963;DHT22;38827;53.024;6.596;2024-02-04T14:06:15;9.30;77.90
52963;DHT22;38827;53.024;6.596;2024-02-04T14:08:59;9.30;78.20
52963;DHT22;38827;53.024;6.596;2024-02-04T14:11:26;9.30;78.50
52963;DHT22;38827;53.024;6.596;2024-02-04T14:13:51;9.30;78.90
52963;DHT22;38827;53.024;6.596;2024-02-04T14:16:17;9.20;79.10
52963;DHT22;38827;53.024;6.596;2024-02-04T14:18:43;9.20;79.30
52963;DHT22;38827;53.024;6.596;2024-02-04T14:21:23;9.20;79.70
52963;DHT22;38827;53.024;6.596;2024-02-04T14:23:52;9.20;79.90
52963;DHT22;38827;53.024;6.596;2024-02-04T14:26:30;9.20;80.30
52963;DHT22;38827;53.024;6.596;2024-02-04T14:28:55;9.20;80.80
52963;DHT22;38827;53.024;6.596;2024-02-04T14:31:21;9.20;81.00
52963;DHT22;38827;53.024;6.596;2024-02-04T14:33:52;9.20;81.30
52963;DHT22;38827;53.024;6.596;2024-02-04T14:36:18;9.20;81.60
52963;DHT22;38827;53.024;6.596;2024-02-04T14:38:46;9.20;82.10
52963;DHT22;38827;53.024;6.596;2024-02-04T14:41:12;9.20;82.30
52963;DHT22;38827;53.024;6.596;2024-02-04T14:43:38;9.20;82.40
52963;DHT22;38827;53.024;6.596;2024-02-04T14:46:04;9.20;82.80
52963;DHT22;38827;53.024;6.596;2024-02-04T14:48:30;9.20;83.10
52963;DHT22;38827;53.024;6.596;2024-02-04T14:50:56;9.20;83.50
52963;DHT22;38827;53.024;6.596;2024-02-04T14:53:25;9.10;83.60
52963;DHT22;38827;53.024;6.596;2024-02-04T14:55:52;9.20;83.80
52963;DHT22;38827;53.024;6.596;2024-02-04T14:58:18;9.10;84.10
52963;DHT22;38827;53.024;6.596;2024-02-04T15:00:44;9.10;84.20
52963;DHT22;38827;53.024;6.596;2024-02-04T15:03:10;9.20;84.50
52963;DHT22;38827;53.024;6.596;2024-02-04T15:05:36;9.20;84.80
52963;DHT22;38827;53.024;6.596;2024-02-04T15:08:01;9.20;85.00
52963;DHT22;38827;53.024;6.596;2024-02-04T15:10:28;9.20;85.00
52963;DHT22;38827;53.024;6.596;2024-02-04T15:12:54;9.20;85.20
52963;DHT22;38827;53.024;6.596;2024-02-04T15:15:22;9.20;85.50
52963;DHT22;38827;53.024;6.596;2024-02-04T15:17:48;9.20;85.70
52963;DHT22;38827;53.024;6.596;2024-02-04T15:20:14;9.20;85.80
52963;DHT22;38827;53.024;6.596;2024-02-04T15:22:43;9.20;86.00
52963;DHT22;38827;53.024;6.596;2024-02-04T15:25:09;9.20;86.10
52963;DHT22;38827;53.024;6.596;2024-02-04T15:27:37;9.20;86.80
52963;DHT22;38827;53.024;6.596;2024-02-04T15:30:04;9.20;86.90
52963;DHT22;38827;53.024;6.596;2024-02-04T15:32:33;9.20;87.30
52963;DHT22;38827;53.024;6.596;2024-02-04T15:34:59;9.20;87.30
52963;DHT22;38827;53.024;6.596;2024-02-04T15:37:25;9.20;87.70
52963;DHT22;38827;53.024;6.596;2024-02-04T15:39:50;9.20;88.10
52963;DHT22;38827;53.024;6.596;2024-02-04T15:42:17;9.20;88.00
52963;DHT22;38827;53.024;6.596;2024-02-04T15:44:42;9.20;88.20
52963;DHT22;38827;53.024;6.596;2024-02-04T15:47:12;9.30;88.10
52963;DHT22;38827;53.024;6.596;2024-02-04T15:49:37;9.30;87.80
52963;DHT22;38827;53.024;6.596;2024-02-04T15:57:33;9.40;88.10
52963;DHT22;38827;53.024;6.596;2024-02-04T16:05:46;9.30;88.70
52963;DHT22;38827;53.024;6.596;2024-02-04T16:11:19;9.40;88.90
52963;DHT22;38827;53.024;6.596;2024-02-04T16:13:53;9.30;89.30
52963;DHT22;38827;53.024;6.596;2024-02-04T16:19:18;9.30;89.70
52963;DHT22;38827;53.024;6.596;2024-02-04T16:21:44;9.30;90.30
52963;DHT22;38827;53.024;6.596;2024-02-04T16:24:10;9.40;90.20
52963;DHT22;38827;53.024;6.596;2024-02-04T16:26:36;9.40;90.40
52963;DHT22;38827;53.024;6.596;2024-02-04T16:29:01;9.40;90.80
52963;DHT22;38827;53.024;6.596;2024-02-04T16:31:28;9.40;91.00
52963;DHT22;38827;53.024;6.596;2024-02-04T16:33:54;9.40;91.30
52963;DHT22;38827;53.024;6.596;2024-02-04T16:36:22;9.40;91.50
52963;DHT22;38827;53.024;6.596;2024-02-04T16:38:48;9.40;91.40
52963;DHT22;38827;53.024;6.596;2024-02-04T16:41:14;9.40;91.60
52963;DHT22;38827;53.024;6.596;2024-02-04T16:43:40;9.40;91.60
52963;DHT22;38827;53.024;6.596;2024-02-04T16:46:12;9.40;91.50
52963;DHT22;38827;53.024;6.596;2024-02-04T16:48:58;9.40;91.80
52963;DHT22;38827;53.024;6.596;2024-02-04T16:55:35;9.40;91.60
52963;DHT22;38827;53.024;6.596;2024-02-04T17:21:09;9.40;92.90
52963;DHT22;38827;53.024;6.596;2024-02-04T17:23:38;9.40;93.30
52963;DHT22;38827;53.024;6.596;2024-02-04T17:26:15;9.40;93.20
52963;DHT22;38827;53.024;6.596;2024-02-04T17:28:57;9.40;93.10
52963;DHT22;38827;53.024;6.596;2024-02-04T17:31:23;9.40;93.40
52963;DHT22;38827;53.024;6.596;2024-02-04T17:33:49;9.40;93.30
52963;DHT22;38827;53.024;6.596;2024-02-04T17:36:16;9.50;93.50
52963;DHT22;38827;53.024;6.596;2024-02-04T17:38:42;9.50;93.50
52963;DHT22;38827;53.024;6.596;2024-02-04T17:41:08;9.50;94.00
52963;DHT22;38827;53.024;6.596;2024-02-04T17:43:34;9.50;94.00
52963;DHT22;38827;53.024;6.596;2024-02-04T17:46:01;9.50;94.10
52963;DHT22;38827;53.024;6.596;2024-02-04T17:48:26;9.50;94.10
52963;DHT22;38827;53.024;6.596;2024-02-04T17:50:52;9.50;94.40
52963;DHT22;38827;53.024;6.596;2024-02-04T17:53:21;9.50;94.50
52963;DHT22;38827;53.024;6.596;2024-02-04T17:55:47;9.50;94.60
52963;DHT22;38827;53.024;6.596;2024-02-04T17:58:13;9.50;94.60
52963;DHT22;38827;53.024;6.596;2024-02-04T18:00:38;9.50;94.50
52963;DHT22;38827;53.024;6.596;2024-02-04T18:03:06;9.50;94.50
52963;DHT22;38827;53.024;6.596;2024-02-04T18:05:32;9.50;94.50
52963;DHT22;38827;53.024;6.596;2024-02-04T18:07:58;9.50;94.50
52963;DHT22;38827;53.024;6.596;2024-02-04T18:10:23;9.60;94.40
52963;DHT22;38827;53.024;6.596;2024-02-04T18:12:49;9.60;94.20
52963;DHT22;38827;53.024;6.596;2024-02-04T18:15:15;9.60;94.10
52963;DHT22;38827;53.024;6.596;2024-02-04T18:17:42;9.60;94.00
52963;DHT22;38827;53.024;6.596;2024-02-04T18:20:17;9.60;94.10
52963;DHT22;38827;53.024;6.596;2024-02-04T18:22:43;9.60;93.90
52963;DHT22;38827;53.024;6.596;2024-02-04T18:25:09;9.60;93.70
52963;DHT22;38827;53.024;6.596;2024-02-04T18:27:38;9.60;93.60
52963;DHT22;38827;53.024;6.596;2024-02-04T18:30:11;9.70;93.60
52963;DHT22;38827;53.024;6.596;2024-02-04T18:32:37;9.70;93.50
52963;DHT22;38827;53.024;6.596;2024-02-04T18:35:03;9.70;93.60
52963;DHT22;38827;53.024;6.596;2024-02-04T18:37:29;9.70;93.70
52963;DHT22;38827;53.024;6.596;2024-02-04T18:39:55;9.70;93.30
52963;DHT22;38827;53.024;6.596;2024-02-04T18:42:20;9.70;93.20
52963;DHT22;38827;53.024;6.596;2024-02-04T18:44:46;9.70;93.10
52963;DHT22;38827;53.024;6.596;2024-02-04T18:47:13;9.80;92.90
52963;DHT22;38827;53.024;6.596;2024-02-04T18:49:42;9.80;92.90
52963;DHT22;38827;53.024;6.596;2024-02-04T18:52:08;9.80;92.80
52963;DHT22;38827;53.024;6.596;2024-02-04T18:54:37;9.80;92.80
52963;DHT22;38827;53.024;6.596;2024-02-04T18:57:03;9.80;92.70
52963;DHT22;38827;53.024;6.596;2024-02-04T19:27:46;9.90;91.50
52963;DHT22;38827;53.024;6.596;2024-02-04T19:30:26;9.90;91.30
52963;DHT22;38827;53.024;6.596;2024-02-04T19:40:26;10.00;90.60
52963;DHT22;38827;53.024;6.596;2024-02-04T19:43:10;10.00;90.50
52963;DHT22;38827;53.024;6.596;2024-02-04T19:48:25;10.10;90.10
52963;DHT22;38827;53.024;6.596;2024-02-04T19:50:50;10.10;90.10
52963;DHT22;38827;53.024;6.596;2024-02-04T19:53:16;10.00;90.20
52963;DHT22;38827;53.024;6.596;2024-02-04T19:55:42;10.00;90.30
52963;DHT22;38827;53.024;6.596;2024-02-04T20:08:37;10.10;89.70
52963;DHT22;38827;53.024;6.596;2024-02-04T20:11:25;10.10;89.70
52963;DHT22;38827;53.024;6.596;2024-02-04T20:14:10;10.10;89.40
52963;DHT22;38827;53.024;6.596;2024-02-04T20:20:26;10.20;89.30
52963;DHT22;38827;53.024;6.596;2024-02-04T20:23:10;10.20;89.30
52963;DHT22;38827;53.024;6.596;2024-02-04T20:25:54;10.20;89.30
52963;DHT22;38827;53.024;6.596;2024-02-04T20:28:38;10.20;89.20
52963;DHT22;38827;53.024;6.596;2024-02-04T20:31:10;10.20;89.30
52963;DHT22;38827;53.024;6.596;2024-02-04T20:33:42;10.20;89.30
52963;DHT22;38827;53.024;6.596;2024-02-04T20:36:12;10.20;89.20
52963;DHT22;38827;53.024;6.596;2024-02-04T20:38:37;10.30;89.10
52963;DHT22;38827;53.024;6.596;2024-02-04T20:41:03;10.30;89.20
52963;DHT22;38827;53.024;6.596;2024-02-04T20:43:29;10.30;89.30
52963;DHT22;38827;53.024;6.596;2024-02-04T20:45:55;10.30;89.20
52963;DHT22;38827;53.024;6.596;2024-02-04T20:48:20;10.30;89.20
52963;DHT22;38827;53.024;6.596;2024-02-04T20:50:46;10.60;88.90
52963;DHT22;38827;53.024;6.596;2024-02-04T20:53:12;10.40;89.00
52963;DHT22;38827;53.024;6.596;2024-02-04T20:55:37;10.40;89.00
52963;DHT22;38827;53.024;6.596;2024-02-04T20:58:04;10.40;89.00
52963;DHT22;38827;53.024;6.596;2024-02-04T21:00:33;10.40;88.90